AFR773 SVMI-TNCC
Flight info
| Callsign | AFR773 |
|---|---|
| Flight time | 0h 37m |
| Altitude | 24000 |
| Route | MARES1 MARES A315 AVELO/N0428F180 A315 OVILA DCT EMAPA EMAPA1B |
| Aircraft | A306/H-SDE3FGHIRWY/LB1 |
Departure
| Time | 2026-04-26 12:04 |
|---|---|
| Airport | Maiquetía Simón Bolívar International Airport (SVMI) |
Arrival
| Time | 2026-04-26 12:41 |
|---|---|
| Airport | Hato International Airport (TNCC) |
| Time | Latitude | Longitude | Altitude | Speed | Heading |
|---|---|---|---|---|---|
| 2026-04-26 11:36 | 10.59943 | -67.00867 | 237 ft | 0 kts | 271° |
| 2026-04-26 11:55 | 10.59943 | -67.00858 | 237 ft | 4 kts | 299° |
| 2026-04-26 11:55 | 10.59929 | -67.00849 | 236 ft | 4 kts | 353° |
| 2026-04-26 11:55 | 10.59911 | -67.00847 | 236 ft | 1 kts | 358° |
| 2026-04-26 11:59 | 10.59912 | -67.00847 | 236 ft | 2 kts | 358° |
| 2026-04-26 11:59 | 10.59922 | -67.00841 | 242 ft | 2 kts | 46° |
| 2026-04-26 11:59 | 10.59914 | -67.00815 | 239 ft | 7 kts | 108° |
| 2026-04-26 11:59 | 10.59898 | -67.00761 | 236 ft | 9 kts | 101° |
| 2026-04-26 12:00 | 10.59894 | -67.00697 | 237 ft | 10 kts | 93° |
| 2026-04-26 12:00 | 10.59888 | -67.00585 | 235 ft | 21 kts | 93° |
| 2026-04-26 12:00 | 10.59890 | -67.00438 | 229 ft | 21 kts | 89° |
| 2026-04-26 12:00 | 10.59892 | -67.00291 | 229 ft | 21 kts | 86° |
| 2026-04-26 12:01 | 10.59901 | -67.00149 | 229 ft | 19 kts | 86° |
| 2026-04-26 12:01 | 10.59907 | -67.00018 | 232 ft | 17 kts | 88° |
| 2026-04-26 12:01 | 10.59944 | -66.99925 | 234 ft | 13 kts | 20° |
| 2026-04-26 12:01 | 10.60054 | -66.99922 | 228 ft | 20 kts | 0° |
| 2026-04-26 12:02 | 10.60134 | -66.99836 | 225 ft | 19 kts | 89° |
| 2026-04-26 12:02 | 10.60133 | -66.99750 | 243 ft | 18 kts | 91° |
| 2026-04-26 12:02 | 10.60060 | -66.99671 | 230 ft | 8 kts | 174° |
| 2026-04-26 12:02 | 10.60025 | -66.99670 | 237 ft | 3 kts | 178° |
| 2026-04-26 12:03 | 10.59985 | -66.99668 | 236 ft | 10 kts | 178° |
| 2026-04-26 12:03 | 10.59900 | -66.99643 | 236 ft | 12 kts | 108° |
| 2026-04-26 12:03 | 10.59906 | -66.99613 | 237 ft | 0 kts | 76° |
| 2026-04-26 12:04 | 10.60019 | -66.99174 | 212 ft | 102 kts | 74° |
| 2026-04-26 12:04 | 10.60252 | -66.98244 | 237 ft | 163 kts | 75° |
| 2026-04-26 12:04 | 10.60438 | -66.97445 | 594 ft | 179 kts | 77° |
| 2026-04-26 12:04 | 10.60721 | -66.96165 | 1469 ft | 193 kts | 75° |
| 2026-04-26 12:05 | 10.61464 | -66.94951 | 2105 ft | 221 kts | 39° |
| 2026-04-26 12:05 | 10.62960 | -66.94489 | 2853 ft | 236 kts | 359° |
| 2026-04-26 12:05 | 10.64543 | -66.95074 | 3405 ft | 262 kts | 322° |
| 2026-04-26 12:05 | 10.65579 | -66.96615 | 4222 ft | 272 kts | 286° |
| 2026-04-26 12:06 | 10.65611 | -66.98532 | 5130 ft | 275 kts | 257° |
| 2026-04-26 12:06 | 10.65187 | -67.00441 | 5859 ft | 279 kts | 259° |
| 2026-04-26 12:06 | 10.64951 | -67.02416 | 6590 ft | 283 kts | 264° |
| 2026-04-26 12:06 | 10.64873 | -67.04422 | 7275 ft | 287 kts | 278° |
| 2026-04-26 12:07 | 10.65680 | -67.06258 | 8002 ft | 288 kts | 310° |
| 2026-04-26 12:07 | 10.67136 | -67.07674 | 8757 ft | 292 kts | 319° |
| 2026-04-26 12:07 | 10.68614 | -67.09070 | 9488 ft | 295 kts | 316° |
| 2026-04-26 12:07 | 10.70054 | -67.10579 | 10214 ft | 299 kts | 313° |
| 2026-04-26 12:08 | 10.71451 | -67.12159 | 10912 ft | 302 kts | 311° |
| 2026-04-26 12:08 | 10.72829 | -67.13790 | 11624 ft | 305 kts | 310° |
| 2026-04-26 12:08 | 10.74198 | -67.15451 | 12351 ft | 308 kts | 309° |
| 2026-04-26 12:08 | 10.75572 | -67.17142 | 13096 ft | 312 kts | 309° |
| 2026-04-26 12:09 | 10.76962 | -67.18862 | 13858 ft | 318 kts | 309° |
| 2026-04-26 12:09 | 10.78376 | -67.20623 | 14544 ft | 325 kts | 309° |
| 2026-04-26 12:09 | 10.79797 | -67.22439 | 15238 ft | 331 kts | 307° |
| 2026-04-26 12:09 | 10.81211 | -67.24309 | 15951 ft | 336 kts | 307° |
| 2026-04-26 12:10 | 10.82640 | -67.26235 | 16539 ft | 347 kts | 306° |
| 2026-04-26 12:10 | 10.84091 | -67.28202 | 17037 ft | 357 kts | 306° |
| 2026-04-26 12:10 | 10.85598 | -67.30248 | 17556 ft | 363 kts | 306° |
| 2026-04-26 12:10 | 10.87124 | -67.32313 | 18049 ft | 366 kts | 306° |
| 2026-04-26 12:11 | 10.88661 | -67.34390 | 18527 ft | 369 kts | 306° |
| 2026-04-26 12:11 | 10.90212 | -67.36481 | 18971 ft | 371 kts | 306° |
| 2026-04-26 12:11 | 10.91777 | -67.38588 | 19424 ft | 374 kts | 306° |
| 2026-04-26 12:11 | 10.93349 | -67.40704 | 19885 ft | 376 kts | 306° |
| 2026-04-26 12:12 | 10.94932 | -67.42835 | 20353 ft | 378 kts | 306° |
| 2026-04-26 12:12 | 10.96524 | -67.44980 | 20832 ft | 381 kts | 306° |
| 2026-04-26 12:12 | 10.98128 | -67.47140 | 21308 ft | 383 kts | 306° |
| 2026-04-26 12:12 | 10.99204 | -67.48572 | 21630 ft | 385 kts | 307° |
| 2026-04-26 12:13 | 11.01443 | -67.51407 | 22298 ft | 389 kts | 309° |
| 2026-04-26 12:13 | 11.03180 | -67.53539 | 22817 ft | 392 kts | 309° |
| 2026-04-26 12:13 | 11.04941 | -67.55678 | 23320 ft | 395 kts | 309° |
| 2026-04-26 12:13 | 11.06716 | -67.57834 | 23762 ft | 398 kts | 309° |
| 2026-04-26 12:14 | 11.08503 | -67.60011 | 23956 ft | 401 kts | 309° |
| 2026-04-26 12:14 | 11.10293 | -67.62200 | 23997 ft | 402 kts | 309° |
| 2026-04-26 12:14 | 11.12084 | -67.64398 | 24004 ft | 403 kts | 309° |
| 2026-04-26 12:14 | 11.13901 | -67.66632 | 24010 ft | 417 kts | 309° |
| 2026-04-26 12:15 | 11.15780 | -67.68945 | 24009 ft | 430 kts | 309° |
| 2026-04-26 12:15 | 11.17710 | -67.71322 | 24008 ft | 441 kts | 309° |
| 2026-04-26 12:15 | 11.19663 | -67.73727 | 24005 ft | 450 kts | 309° |
| 2026-04-26 12:15 | 11.21662 | -67.76187 | 23724 ft | 449 kts | 309° |
| 2026-04-26 12:16 | 11.23674 | -67.78666 | 23379 ft | 461 kts | 309° |
| 2026-04-26 12:16 | 11.25742 | -67.81214 | 23002 ft | 469 kts | 309° |
| 2026-04-26 12:16 | 11.27831 | -67.83787 | 22617 ft | 472 kts | 309° |
| 2026-04-26 12:16 | 11.29926 | -67.86369 | 22246 ft | 472 kts | 309° |
| 2026-04-26 12:17 | 11.32017 | -67.88946 | 21890 ft | 471 kts | 309° |
| 2026-04-26 12:17 | 11.34101 | -67.91515 | 21537 ft | 469 kts | 309° |
| 2026-04-26 12:17 | 11.36174 | -67.94071 | 21178 ft | 466 kts | 309° |
| 2026-04-26 12:17 | 11.38231 | -67.96609 | 20814 ft | 464 kts | 309° |
| 2026-04-26 12:18 | 11.40284 | -67.99141 | 20467 ft | 461 kts | 309° |
| 2026-04-26 12:18 | 11.42295 | -68.01633 | 20126 ft | 459 kts | 308° |
| 2026-04-26 12:18 | 11.44298 | -68.04163 | 19780 ft | 457 kts | 308° |
| 2026-04-26 12:18 | 11.46272 | -68.06688 | 19439 ft | 454 kts | 308° |
| 2026-04-26 12:19 | 11.48234 | -68.09211 | 19105 ft | 452 kts | 307° |
| 2026-04-26 12:19 | 11.50181 | -68.11717 | 18773 ft | 450 kts | 307° |
| 2026-04-26 12:19 | 11.52118 | -68.14210 | 18445 ft | 448 kts | 307° |
| 2026-04-26 12:19 | 11.54053 | -68.16695 | 18123 ft | 446 kts | 307° |
| 2026-04-26 12:20 | 11.55980 | -68.19169 | 18001 ft | 445 kts | 307° |
| 2026-04-26 12:20 | 11.57907 | -68.21639 | 18000 ft | 444 kts | 307° |
| 2026-04-26 12:20 | 11.59830 | -68.24105 | 18001 ft | 444 kts | 307° |
| 2026-04-26 12:20 | 11.61729 | -68.26541 | 18001 ft | 443 kts | 307° |
| 2026-04-26 12:21 | 11.63632 | -68.28983 | 17976 ft | 430 kts | 307° |
| 2026-04-26 12:21 | 11.65462 | -68.31329 | 17614 ft | 415 kts | 307° |
| 2026-04-26 12:21 | 11.67238 | -68.33606 | 17164 ft | 405 kts | 307° |
| 2026-04-26 12:21 | 11.68970 | -68.35828 | 16710 ft | 396 kts | 307° |
| 2026-04-26 12:22 | 11.70667 | -68.38006 | 16266 ft | 388 kts | 307° |
| 2026-04-26 12:22 | 11.72215 | -68.40218 | 15811 ft | 379 kts | 296° |
| 2026-04-26 12:22 | 11.73096 | -68.42721 | 15395 ft | 371 kts | 284° |
| 2026-04-26 12:22 | 11.73764 | -68.45243 | 14963 ft | 364 kts | 284° |
| 2026-04-26 12:23 | 11.74415 | -68.47727 | 14552 ft | 359 kts | 284° |
| 2026-04-26 12:23 | 11.75067 | -68.50166 | 14142 ft | 354 kts | 284° |
| 2026-04-26 12:23 | 11.75721 | -68.52569 | 13728 ft | 349 kts | 284° |
| 2026-04-26 12:23 | 11.76365 | -68.54914 | 13277 ft | 345 kts | 285° |
| 2026-04-26 12:24 | 11.77010 | -68.57255 | 12817 ft | 341 kts | 285° |
| 2026-04-26 12:24 | 11.77652 | -68.59575 | 12372 ft | 337 kts | 285° |
| 2026-04-26 12:24 | 11.78288 | -68.61869 | 11925 ft | 334 kts | 285° |
| 2026-04-26 12:25 | 11.79540 | -68.66378 | 11069 ft | 327 kts | 285° |
| 2026-04-26 12:25 | 11.80156 | -68.68600 | 10641 ft | 324 kts | 285° |
| 2026-04-26 12:25 | 11.80762 | -68.70786 | 10407 ft | 315 kts | 285° |
| 2026-04-26 12:25 | 11.81350 | -68.72904 | 10249 ft | 304 kts | 285° |
| 2026-04-26 12:26 | 11.81918 | -68.74951 | 10007 ft | 297 kts | 285° |
| 2026-04-26 12:26 | 11.82478 | -68.76970 | 9680 ft | 294 kts | 285° |
| 2026-04-26 12:26 | 11.83034 | -68.78976 | 9293 ft | 292 kts | 285° |
| 2026-04-26 12:26 | 11.83586 | -68.80968 | 8922 ft | 291 kts | 285° |
| 2026-04-26 12:27 | 11.84134 | -68.82949 | 8573 ft | 289 kts | 285° |
| 2026-04-26 12:27 | 11.84672 | -68.84895 | 8204 ft | 288 kts | 285° |
| 2026-04-26 12:27 | 11.85216 | -68.86857 | 7850 ft | 286 kts | 285° |
| 2026-04-26 12:27 | 11.85756 | -68.88809 | 7483 ft | 285 kts | 285° |
| 2026-04-26 12:28 | 11.86294 | -68.90753 | 7126 ft | 284 kts | 285° |
| 2026-04-26 12:28 | 11.86829 | -68.92687 | 6772 ft | 282 kts | 285° |
| 2026-04-26 12:28 | 11.87361 | -68.94611 | 6434 ft | 281 kts | 285° |
| 2026-04-26 12:28 | 11.87890 | -68.96526 | 6068 ft | 280 kts | 285° |
| 2026-04-26 12:29 | 11.88417 | -68.98432 | 5720 ft | 278 kts | 285° |
| 2026-04-26 12:29 | 11.88938 | -69.00320 | 5377 ft | 276 kts | 286° |
| 2026-04-26 12:29 | 11.89963 | -69.04032 | 4928 ft | 262 kts | 285° |
| 2026-04-26 12:30 | 11.90449 | -69.05793 | 4755 ft | 255 kts | 285° |
| 2026-04-26 12:30 | 11.90920 | -69.07528 | 4465 ft | 253 kts | 285° |
| 2026-04-26 12:30 | 11.91387 | -69.09226 | 4201 ft | 250 kts | 286° |
| 2026-04-26 12:31 | 11.92325 | -69.12613 | 3386 ft | 248 kts | 286° |
| 2026-04-26 12:31 | 11.92790 | -69.14300 | 2982 ft | 246 kts | 286° |
| 2026-04-26 12:31 | 11.93257 | -69.15985 | 2532 ft | 246 kts | 286° |
| 2026-04-26 12:31 | 11.93728 | -69.17672 | 2107 ft | 246 kts | 287° |
| 2026-04-26 12:32 | 11.94200 | -69.19346 | 1700 ft | 244 kts | 287° |
| 2026-04-26 12:32 | 11.94777 | -69.20939 | 1693 ft | 238 kts | 303° |
| 2026-04-26 12:32 | 11.97639 | -69.22163 | 2151 ft | 230 kts | 6° |
| 2026-04-26 12:33 | 11.99188 | -69.21819 | 2152 ft | 229 kts | 19° |
| 2026-04-26 12:33 | 12.00725 | -69.21348 | 2230 ft | 229 kts | 19° |
| 2026-04-26 12:33 | 12.02245 | -69.20876 | 2112 ft | 228 kts | 20° |
| 2026-04-26 12:33 | 12.03759 | -69.20353 | 2114 ft | 230 kts | 21° |
| 2026-04-26 12:34 | 12.05294 | -69.19815 | 1656 ft | 230 kts | 23° |
| 2026-04-26 12:34 | 12.06816 | -69.19335 | 2024 ft | 229 kts | 19° |
| 2026-04-26 12:34 | 12.08334 | -69.18822 | 2191 ft | 229 kts | 21° |
| 2026-04-26 12:34 | 12.09849 | -69.18301 | 2058 ft | 229 kts | 21° |
| 2026-04-26 12:35 | 12.11375 | -69.17811 | 1997 ft | 230 kts | 13° |
| 2026-04-26 12:35 | 12.12911 | -69.17442 | 1961 ft | 230 kts | 17° |
| 2026-04-26 12:35 | 12.14465 | -69.17051 | 1995 ft | 231 kts | 11° |
| 2026-04-26 12:35 | 12.16042 | -69.16770 | 1897 ft | 229 kts | 14° |
| 2026-04-26 12:36 | 12.17533 | -69.16397 | 1827 ft | 213 kts | 19° |
| 2026-04-26 12:36 | 12.18910 | -69.15967 | 1872 ft | 204 kts | 21° |
| 2026-04-26 12:36 | 12.20248 | -69.15490 | 2008 ft | 203 kts | 22° |
| 2026-04-26 12:36 | 12.21529 | -69.14905 | 1895 ft | 197 kts | 41° |
| 2026-04-26 12:37 | 12.22297 | -69.13762 | 2006 ft | 197 kts | 73° |
| 2026-04-26 12:37 | 12.22427 | -69.12403 | 1886 ft | 190 kts | 96° |
| 2026-04-26 12:37 | 12.22149 | -69.11092 | 1681 ft | 185 kts | 106° |
| 2026-04-26 12:37 | 12.21785 | -69.09872 | 1589 ft | 177 kts | 106° |
| 2026-04-26 12:38 | 12.21456 | -69.08695 | 1511 ft | 167 kts | 106° |
| 2026-04-26 12:38 | 12.21147 | -69.07539 | 1596 ft | 167 kts | 102° |
| 2026-04-26 12:38 | 12.20939 | -69.06371 | 1672 ft | 167 kts | 99° |
| 2026-04-26 12:38 | 12.20728 | -69.05252 | 1555 ft | 153 kts | 102° |
| 2026-04-26 12:39 | 12.20542 | -69.04242 | 1542 ft | 142 kts | 99° |
| 2026-04-26 12:39 | 12.20361 | -69.03262 | 1336 ft | 137 kts | 101° |
| 2026-04-26 12:39 | 12.20184 | -69.02311 | 1285 ft | 137 kts | 94° |
| 2026-04-26 12:39 | 12.20068 | -69.01325 | 961 ft | 140 kts | 94° |
| 2026-04-26 12:40 | 12.19862 | -69.00391 | 730 ft | 129 kts | 99° |
| 2026-04-26 12:40 | 12.19639 | -68.99515 | 565 ft | 127 kts | 97° |
| 2026-04-26 12:40 | 12.19449 | -68.98627 | 485 ft | 130 kts | 95° |
| 2026-04-26 12:40 | 12.19285 | -68.97732 | 236 ft | 126 kts | 96° |
| 2026-04-26 12:41 | 12.19085 | -68.96836 | 105 ft | 133 kts | 94° |
| 2026-04-26 12:41 | 12.18909 | -68.95933 | 49 ft | 117 kts | 96° |
| 2026-04-26 12:41 | 12.18768 | -68.95292 | 48 ft | 69 kts | 107° |
| 2026-04-26 12:41 | 12.18671 | -68.94917 | 51 ft | 44 kts | 99° |
| 2026-04-26 12:42 | 12.18635 | -68.94687 | 50 ft | 28 kts | 111° |
| 2026-04-26 12:42 | 12.18591 | -68.94517 | 50 ft | 21 kts | 105° |
| 2026-04-26 12:42 | 12.18507 | -68.94467 | 50 ft | 15 kts | 187° |
| 2026-04-26 12:42 | 12.18421 | -68.94514 | 51 ft | 14 kts | 242° |
| 2026-04-26 12:43 | 12.18424 | -68.94607 | 46 ft | 13 kts | 282° |
| 2026-04-26 12:43 | 12.18443 | -68.94698 | 49 ft | 13 kts | 282° |
| 2026-04-26 12:43 | 12.18462 | -68.94790 | 51 ft | 13 kts | 282° |
| 2026-04-26 12:43 | 12.18482 | -68.94883 | 48 ft | 13 kts | 282° |
| 2026-04-26 12:44 | 12.18502 | -68.94975 | 50 ft | 13 kts | 282° |
| 2026-04-26 12:44 | 12.18522 | -68.95068 | 50 ft | 13 kts | 282° |
| 2026-04-26 12:44 | 12.18542 | -68.95162 | 48 ft | 13 kts | 282° |
| 2026-04-26 12:44 | 12.18562 | -68.95255 | 49 ft | 14 kts | 282° |
| 2026-04-26 12:45 | 12.18582 | -68.95351 | 47 ft | 14 kts | 282° |
| 2026-04-26 12:45 | 12.18602 | -68.95448 | 49 ft | 14 kts | 282° |
| 2026-04-26 12:45 | 12.18622 | -68.95544 | 49 ft | 14 kts | 282° |
| 2026-04-26 12:45 | 12.18639 | -68.95641 | 49 ft | 14 kts | 280° |
| 2026-04-26 12:46 | 12.18630 | -68.95718 | 48 ft | 9 kts | 211° |
| 2026-04-26 12:46 | 12.18582 | -68.95722 | 49 ft | 3 kts | 180° |
| 2026-04-26 12:46 | 12.18572 | -68.95722 | 49 ft | 0 kts | 180° |
| 2026-04-26 12:46 | 12.18571 | -68.95722 | 49 ft | 0 kts | 180° |
| 2026-04-26 12:47 | 12.18569 | -68.95722 | 49 ft | 0 kts | 179° |
| 2026-04-26 12:47 | 12.18566 | -68.95722 | 49 ft | 0 kts | 179° |
| 2026-04-26 12:47 | 12.18564 | -68.95722 | 49 ft | 0 kts | 179° |